首页
METAR-TAF:

METAR-TAF

机场 :

潘普洛纳机场

潘普洛納, 西班牙

纬度: 42-46N, 经度: 001-38W, 海拔: 459米

当前天气观测

该预报发布于22分钟前的05:30 UTC
风速1节,风向多变
温度 0°C
湿度 100%
气压 1017 hPa
能见度10公里或以上
少量云层高于2000英尺
散云层高于4000英尺

METAR: LEPP 190530Z VRB01KT 9999 FEW020 SCT040 00/00 Q1017

时间: 06:52 (05:52 UTC)

预报

该预报发布于3小时和52分钟前的02:00 UTC
预报有效从19日的 03点(UTC)到 20日的 03点(UTC)
风速5节,风向多变
能见度10公里或以上
少量云层高于2000英尺
散云层高于3000英尺
几率 40% :
短暂存在
从 19日的 03点(UTC)到 19日的 08点(UTC)
能見度: 3000
多云层高于1000英尺
轻雾, 碎片雾
短暂存在
从 19日的 09点(UTC)到 19日的 14点(UTC)
风速10节,风向西北

TAF: LEPP 190200Z 1903/2003 VRB05KT 9999 FEW020 SCT030 TX08/1914Z TNM00/1906Z PROB40 TEMPO 1903/1908 3000 BR BCFG BKN010 TEMPO 1909/1914 32010KT

超过4000个机场的气象观测和天气预报(METAR&TAF报告)。

可查询的气象台以黄色和红色小点在地图上表示。

将鼠标移到小点上方,可查看气象台名称。

然后点击查看天气观测和预报。

如需切换地图:点击带黑十字的绿色按钮放大地图;点击带横线的绿色按钮缩小地图;或者点击绿色箭头查看邻近地区的地图。


METAR-TAF: